CheckWX is a tool to help pilots better visualize weather data.  It is not intended as a substitute for an official pre-flight weather briefing.

14:26:48 UTC

BGTL METAR
Thule Air Base Airport
Qaanaaq, Greenland
Current

31 mins ago

BGTL 201356Z AUTO 28006KT 9999 BKN023 BKN034 BKN110 07/07 A2978 RMK AO2 CIG 023V034 BKN023 V SCT SLP068 T00660065 TSNO $
Observed
Jul-20 @ 13:56 UTC
Wind
  • 280° at 6 KTS
Visibility
10,000+ meters
Flight Rules
MVFR
Cloud Levels
  • Broken at 2,300' AGL
  • Broken at 3,400' AGL
  • Broken at 11,000' AGL
Temperature
C / 45°F
Dewpoint
C / 45°F
Humidity
100%
Altimeter
29.78" Hg
Pressure
1008.42 hPa
Previous

2 hours ago

BGTL 201256Z AUTO 27005KT 9999 FEW023 BKN036 07/06 A2978 RMK AO2 SLP068 T00740062 TSNO $
Observed
Jul-20 @ 12:56 UTC
Wind
  • 270° at 5 KTS
Visibility
10,000+ meters
Flight Rules
VFR
Cloud Levels
  • Few at 2,300' AGL
  • Broken at 3,600' AGL
Temperature
C / 45°F
Dewpoint
C / 43°F
Humidity
93%
Altimeter
29.78" Hg
Pressure
1008.42 hPa
Previous

3 hours ago

BGTL 201156Z AUTO 25005KT 9999 BKN023 OVC030 07/07 A2978 RMK AO2 CIG 021 RWY26 SLP068 T00690066 10074 20064 51004 TSNO $
Observed
Jul-20 @ 11:56 UTC
Wind
  • 250° at 5 KTS
Visibility
10,000+ meters
Flight Rules
MVFR
Cloud Levels
  • Broken at 2,300' AGL
  • Overcast at 3,000' AGL
Temperature
C / 45°F
Dewpoint
C / 45°F
Humidity
100%
Altimeter
29.78" Hg
Pressure
1008.42 hPa